sensor_id;sensor_type;location;lat;lon;timestamp;P1;durP1;ratioP1;P2;durP2;ratioP2
14984;SDS011;7588;62.368;25.902;2022-09-03T00:01:37;3.60;;;2.80;;
14984;SDS011;7588;62.368;25.902;2022-09-03T00:04:13;3.40;;;3.10;;
14984;SDS011;7588;62.368;25.902;2022-09-03T00:06:51;5.13;;;3.03;;
14984;SDS011;7588;62.368;25.902;2022-09-03T00:09:26;3.90;;;2.93;;
14984;SDS011;7588;62.368;25.902;2022-09-03T00:12:20;4.23;;;3.00;;
14984;SDS011;7588;62.368;25.902;2022-09-03T00:17:17;3.43;;;3.13;;
14984;SDS011;7588;62.368;25.902;2022-09-03T00:19:54;3.50;;;3.10;;
14984;SDS011;7588;62.368;25.902;2022-09-03T00:22:27;3.90;;;3.03;;
14984;SDS011;7588;62.368;25.902;2022-09-03T00:25:01;3.40;;;2.90;;
14984;SDS011;7588;62.368;25.902;2022-09-03T00:27:30;3.63;;;2.80;;
14984;SDS011;7588;62.368;25.902;2022-09-03T00:35:10;3.47;;;2.60;;
14984;SDS011;7588;62.368;25.902;2022-09-03T00:37:42;3.60;;;2.77;;
14984;SDS011;7588;62.368;25.902;2022-09-03T00:40:17;4.03;;;2.83;;
14984;SDS011;7588;62.368;25.902;2022-09-03T00:43:11;3.17;;;2.50;;
14984;SDS011;7588;62.368;25.902;2022-09-03T00:54:24;3.03;;;2.70;;
14984;SDS011;7588;62.368;25.902;2022-09-03T01:00:07;4.60;;;2.73;;
14984;SDS011;7588;62.368;25.902;2022-09-03T01:08:34;4.93;;;2.90;;
14984;SDS011;7588;62.368;25.902;2022-09-03T01:16:53;3.57;;;2.70;;
14984;SDS011;7588;62.368;25.902;2022-09-03T01:30:41;3.57;;;2.77;;
14984;SDS011;7588;62.368;25.902;2022-09-03T01:40:45;4.67;;;3.10;;
14984;SDS011;7588;62.368;25.902;2022-09-03T01:46:08;5.57;;;3.10;;
14984;SDS011;7588;62.368;25.902;2022-09-03T01:51:24;5.87;;;2.43;;
14984;SDS011;7588;62.368;25.902;2022-09-03T01:59:32;3.77;;;3.00;;
14984;SDS011;7588;62.368;25.902;2022-09-03T02:02:25;4.57;;;2.80;;
14984;SDS011;7588;62.368;25.902;2022-09-03T02:07:38;3.50;;;2.87;;
14984;SDS011;7588;62.368;25.902;2022-09-03T02:10:13;3.07;;;2.73;;
14984;SDS011;7588;62.368;25.902;2022-09-03T02:12:43;3.83;;;3.03;;
14984;SDS011;7588;62.368;25.902;2022-09-03T02:15:14;3.50;;;2.80;;
14984;SDS011;7588;62.368;25.902;2022-09-03T02:17:43;2.93;;;2.37;;
14984;SDS011;7588;62.368;25.902;2022-09-03T02:20:12;4.07;;;2.60;;
14984;SDS011;7588;62.368;25.902;2022-09-03T02:22:44;3.40;;;2.37;;
14984;SDS011;7588;62.368;25.902;2022-09-03T02:25:11;3.17;;;2.50;;
14984;SDS011;7588;62.368;25.902;2022-09-03T02:27:37;3.30;;;2.50;;
14984;SDS011;7588;62.368;25.902;2022-09-03T02:30:04;3.73;;;3.10;;
14984;SDS011;7588;62.368;25.902;2022-09-03T02:32:30;3.17;;;2.87;;
14984;SDS011;7588;62.368;25.902;2022-09-03T02:34:57;4.30;;;2.70;;
14984;SDS011;7588;62.368;25.902;2022-09-03T02:37:23;3.67;;;2.90;;
14984;SDS011;7588;62.368;25.902;2022-09-03T02:39:49;3.53;;;2.73;;
14984;SDS011;7588;62.368;25.902;2022-09-03T02:42:18;3.50;;;2.80;;
14984;SDS011;7588;62.368;25.902;2022-09-03T02:44:48;3.47;;;2.77;;
14984;SDS011;7588;62.368;25.902;2022-09-03T02:47:19;3.17;;;2.70;;
14984;SDS011;7588;62.368;25.902;2022-09-03T02:49:48;4.37;;;2.70;;
14984;SDS011;7588;62.368;25.902;2022-09-03T02:52:14;3.30;;;2.80;;
14984;SDS011;7588;62.368;25.902;2022-09-03T02:54:40;3.53;;;3.13;;
14984;SDS011;7588;62.368;25.902;2022-09-03T02:57:09;3.57;;;2.80;;
14984;SDS011;7588;62.368;25.902;2022-09-03T02:59:38;4.30;;;2.90;;
14984;SDS011;7588;62.368;25.902;2022-09-03T03:02:05;2.83;;;2.50;;
14984;SDS011;7588;62.368;25.902;2022-09-03T03:04:35;4.40;;;2.70;;
14984;SDS011;7588;62.368;25.902;2022-09-03T03:07:01;3.70;;;2.63;;
14984;SDS011;7588;62.368;25.902;2022-09-03T03:09:27;3.30;;;2.40;;
14984;SDS011;7588;62.368;25.902;2022-09-03T03:11:53;3.60;;;2.80;;
14984;SDS011;7588;62.368;25.902;2022-09-03T03:14:19;3.40;;;2.20;;
14984;SDS011;7588;62.368;25.902;2022-09-03T03:16:46;2.50;;;2.30;;
14984;SDS011;7588;62.368;25.902;2022-09-03T03:19:13;4.03;;;2.50;;
14984;SDS011;7588;62.368;25.902;2022-09-03T03:21:38;2.50;;;2.30;;
14984;SDS011;7588;62.368;25.902;2022-09-03T03:24:04;3.83;;;2.43;;
14984;SDS011;7588;62.368;25.902;2022-09-03T03:26:31;3.43;;;2.37;;
14984;SDS011;7588;62.368;25.902;2022-09-03T03:28:57;3.00;;;2.30;;
14984;SDS011;7588;62.368;25.902;2022-09-03T03:31:24;2.50;;;2.30;;
14984;SDS011;7588;62.368;25.902;2022-09-03T03:33:52;3.33;;;2.30;;
14984;SDS011;7588;62.368;25.902;2022-09-03T03:36:23;6.33;;;2.70;;
14984;SDS011;7588;62.368;25.902;2022-09-03T03:38:52;3.00;;;2.60;;
14984;SDS011;7588;62.368;25.902;2022-09-03T03:41:21;3.47;;;2.73;;
14984;SDS011;7588;62.368;25.902;2022-09-03T03:43:55;3.07;;;2.33;;
14984;SDS011;7588;62.368;25.902;2022-09-03T03:46:22;5.67;;;2.80;;
14984;SDS011;7588;62.368;25.902;2022-09-03T03:48:49;3.20;;;2.73;;
14984;SDS011;7588;62.368;25.902;2022-09-03T03:51:15;3.90;;;2.30;;
14984;SDS011;7588;62.368;25.902;2022-09-03T03:53:42;2.73;;;2.23;;
14984;SDS011;7588;62.368;25.902;2022-09-03T03:56:09;3.60;;;2.50;;
14984;SDS011;7588;62.368;25.902;2022-09-03T03:58:36;2.33;;;1.90;;
14984;SDS011;7588;62.368;25.902;2022-09-03T04:01:10;2.60;;;2.20;;
14984;SDS011;7588;62.368;25.902;2022-09-03T04:03:37;3.87;;;3.13;;
14984;SDS011;7588;62.368;25.902;2022-09-03T04:06:03;2.60;;;2.23;;
14984;SDS011;7588;62.368;25.902;2022-09-03T04:08:32;2.40;;;2.20;;
14984;SDS011;7588;62.368;25.902;2022-09-03T04:10:59;3.23;;;2.10;;
14984;SDS011;7588;62.368;25.902;2022-09-03T04:13:30;2.83;;;2.47;;
14984;SDS011;7588;62.368;25.902;2022-09-03T04:16:03;3.30;;;2.20;;
14984;SDS011;7588;62.368;25.902;2022-09-03T04:18:31;2.77;;;2.30;;
14984;SDS011;7588;62.368;25.902;2022-09-03T04:21:01;3.27;;;2.00;;
14984;SDS011;7588;62.368;25.902;2022-09-03T04:23:31;2.73;;;1.90;;
14984;SDS011;7588;62.368;25.902;2022-09-03T04:25:58;2.63;;;2.43;;
14984;SDS011;7588;62.368;25.902;2022-09-03T04:28:25;2.97;;;2.30;;
14984;SDS011;7588;62.368;25.902;2022-09-03T04:30:51;2.73;;;1.83;;
14984;SDS011;7588;62.368;25.902;2022-09-03T04:33:17;3.77;;;2.10;;
14984;SDS011;7588;62.368;25.902;2022-09-03T04:35:43;3.00;;;2.20;;
14984;SDS011;7588;62.368;25.902;2022-09-03T04:38:09;2.00;;;1.90;;
14984;SDS011;7588;62.368;25.902;2022-09-03T04:40:35;2.17;;;1.83;;
14984;SDS011;7588;62.368;25.902;2022-09-03T04:43:01;2.23;;;1.90;;
14984;SDS011;7588;62.368;25.902;2022-09-03T04:45:27;2.73;;;2.00;;
14984;SDS011;7588;62.368;25.902;2022-09-03T04:47:57;3.10;;;2.00;;
14984;SDS011;7588;62.368;25.902;2022-09-03T04:50:27;1.80;;;1.70;;
14984;SDS011;7588;62.368;25.902;2022-09-03T04:52:54;1.90;;;1.70;;
14984;SDS011;7588;62.368;25.902;2022-09-03T04:55:24;2.63;;;1.60;;
14984;SDS011;7588;62.368;25.902;2022-09-03T04:57:50;1.70;;;1.60;;
14984;SDS011;7588;62.368;25.902;2022-09-03T05:00:16;1.83;;;1.73;;
14984;SDS011;7588;62.368;25.902;2022-09-03T05:02:43;1.77;;;1.67;;
14984;SDS011;7588;62.368;25.902;2022-09-03T05:05:13;1.70;;;1.60;;
14984;SDS011;7588;62.368;25.902;2022-09-03T05:07:39;1.80;;;1.70;;
14984;SDS011;7588;62.368;25.902;2022-09-03T05:10:05;1.97;;;1.70;;
14984;SDS011;7588;62.368;25.902;2022-09-03T05:12:33;1.40;;;1.30;;
14984;SDS011;7588;62.368;25.902;2022-09-03T05:14:59;2.00;;;1.70;;
14984;SDS011;7588;62.368;25.902;2022-09-03T05:17:26;1.20;;;1.10;;
14984;SDS011;7588;62.368;25.902;2022-09-03T05:19:52;1.30;;;1.20;;
14984;SDS011;7588;62.368;25.902;2022-09-03T05:22:18;1.63;;;1.53;;
14984;SDS011;7588;62.368;25.902;2022-09-03T05:24:47;1.40;;;1.30;;
14984;SDS011;7588;62.368;25.902;2022-09-03T05:27:13;1.30;;;1.20;;
14984;SDS011;7588;62.368;25.902;2022-09-03T05:29:42;1.43;;;1.33;;
14984;SDS011;7588;62.368;25.902;2022-09-03T05:32:08;1.40;;;1.10;;
14984;SDS011;7588;62.368;25.902;2022-09-03T05:34:34;1.20;;;1.10;;
14984;SDS011;7588;62.368;25.902;2022-09-03T05:37:00;1.13;;;1.00;;
14984;SDS011;7588;62.368;25.902;2022-09-03T05:39:26;1.30;;;1.20;;
14984;SDS011;7588;62.368;25.902;2022-09-03T05:41:51;1.07;;;1.00;;
14984;SDS011;7588;62.368;25.902;2022-09-03T05:44:17;1.30;;;1.20;;
14984;SDS011;7588;62.368;25.902;2022-09-03T05:46:47;1.60;;;1.50;;
14984;SDS011;7588;62.368;25.902;2022-09-03T05:49:13;1.07;;;0.97;;
14984;SDS011;7588;62.368;25.902;2022-09-03T05:51:39;1.33;;;1.30;;
14984;SDS011;7588;62.368;25.902;2022-09-03T05:54:06;2.13;;;1.27;;
14984;SDS011;7588;62.368;25.902;2022-09-03T05:56:33;1.20;;;1.10;;
14984;SDS011;7588;62.368;25.902;2022-09-03T05:59:02;1.37;;;1.27;;
14984;SDS011;7588;62.368;25.902;2022-09-03T06:01:51;1.10;;;1.10;;
14984;SDS011;7588;62.368;25.902;2022-09-03T06:04:17;1.10;;;1.10;;
14984;SDS011;7588;62.368;25.902;2022-09-03T06:06:43;1.40;;;1.13;;
14984;SDS011;7588;62.368;25.902;2022-09-03T06:09:17;1.50;;;1.40;;
14984;SDS011;7588;62.368;25.902;2022-09-03T06:11:45;1.27;;;1.10;;
14984;SDS011;7588;62.368;25.902;2022-09-03T06:14:11;1.20;;;1.20;;
14984;SDS011;7588;62.368;25.902;2022-09-03T06:16:39;1.20;;;1.20;;
14984;SDS011;7588;62.368;25.902;2022-09-03T06:19:07;1.23;;;1.13;;
14984;SDS011;7588;62.368;25.902;2022-09-03T06:21:38;1.43;;;1.10;;
14984;SDS011;7588;62.368;25.902;2022-09-03T06:24:07;1.23;;;1.10;;
14984;SDS011;7588;62.368;25.902;2022-09-03T06:26:37;1.10;;;1.00;;
14984;SDS011;7588;62.368;25.902;2022-09-03T06:29:04;1.93;;;1.47;;
14984;SDS011;7588;62.368;25.902;2022-09-03T06:31:30;1.33;;;1.00;;
14984;SDS011;7588;62.368;25.902;2022-09-03T06:33:56;1.07;;;0.93;;
14984;SDS011;7588;62.368;25.902;2022-09-03T06:36:22;1.43;;;1.10;;
14984;SDS011;7588;62.368;25.902;2022-09-03T06:38:52;1.77;;;1.10;;
14984;SDS011;7588;62.368;25.902;2022-09-03T06:41:21;2.00;;;1.20;;
14984;SDS011;7588;62.368;25.902;2022-09-03T06:43:52;1.27;;;1.17;;
14984;SDS011;7588;62.368;25.902;2022-09-03T06:46:25;1.40;;;1.30;;
14984;SDS011;7588;62.368;25.902;2022-09-03T06:48:51;2.23;;;1.13;;
14984;SDS011;7588;62.368;25.902;2022-09-03T06:51:21;1.47;;;1.37;;
14984;SDS011;7588;62.368;25.902;2022-09-03T06:53:49;4.90;;;1.60;;
14984;SDS011;7588;62.368;25.902;2022-09-03T06:56:18;1.30;;;1.20;;
14984;SDS011;7588;62.368;25.902;2022-09-03T06:58:52;1.53;;;1.00;;
14984;SDS011;7588;62.368;25.902;2022-09-03T07:01:20;1.23;;;1.23;;
14984;SDS011;7588;62.368;25.902;2022-09-03T07:03:53;1.00;;;1.00;;
14984;SDS011;7588;62.368;25.902;2022-09-03T07:06:21;1.20;;;1.10;;
14984;SDS011;7588;62.368;25.902;2022-09-03T07:08:48;2.20;;;1.07;;
14984;SDS011;7588;62.368;25.902;2022-09-03T07:11:15;1.20;;;1.13;;
14984;SDS011;7588;62.368;25.902;2022-09-03T07:13:44;1.10;;;1.10;;
14984;SDS011;7588;62.368;25.902;2022-09-03T07:16:13;1.03;;;1.00;;
14984;SDS011;7588;62.368;25.902;2022-09-03T07:18:40;1.07;;;1.00;;
14984;SDS011;7588;62.368;25.902;2022-09-03T07:21:08;0.80;;;0.80;;
14984;SDS011;7588;62.368;25.902;2022-09-03T07:23:39;1.10;;;1.00;;
14984;SDS011;7588;62.368;25.902;2022-09-03T07:26:07;1.27;;;1.17;;
14984;SDS011;7588;62.368;25.902;2022-09-03T07:28:35;1.47;;;1.00;;
14984;SDS011;7588;62.368;25.902;2022-09-03T07:31:03;1.03;;;0.90;;
14984;SDS011;7588;62.368;25.902;2022-09-03T07:33:30;1.13;;;1.03;;
14984;SDS011;7588;62.368;25.902;2022-09-03T07:36:01;0.90;;;0.90;;
14984;SDS011;7588;62.368;25.902;2022-09-03T07:38:32;1.53;;;0.70;;
14984;SDS011;7588;62.368;25.902;2022-09-03T07:40:59;1.13;;;0.93;;
14984;SDS011;7588;62.368;25.902;2022-09-03T07:43:29;0.70;;;0.70;;
14984;SDS011;7588;62.368;25.902;2022-09-03T07:45:59;1.17;;;0.83;;
14984;SDS011;7588;62.368;25.902;2022-09-03T07:48:25;1.00;;;1.00;;
14984;SDS011;7588;62.368;25.902;2022-09-03T07:50:51;0.90;;;0.90;;
14984;SDS011;7588;62.368;25.902;2022-09-03T07:53:23;1.10;;;1.00;;
14984;SDS011;7588;62.368;25.902;2022-09-03T07:55:49;0.80;;;0.80;;
14984;SDS011;7588;62.368;25.902;2022-09-03T07:58:15;2.80;;;0.93;;
14984;SDS011;7588;62.368;25.902;2022-09-03T08:00:42;2.17;;;1.07;;
14984;SDS011;7588;62.368;25.902;2022-09-03T08:03:08;2.27;;;1.03;;
14984;SDS011;7588;62.368;25.902;2022-09-03T08:05:35;1.53;;;1.20;;
14984;SDS011;7588;62.368;25.902;2022-09-03T08:08:02;0.90;;;0.90;;
14984;SDS011;7588;62.368;25.902;2022-09-03T08:10:29;0.90;;;0.90;;
14984;SDS011;7588;62.368;25.902;2022-09-03T08:13:04;1.40;;;1.10;;
14984;SDS011;7588;62.368;25.902;2022-09-03T08:15:30;1.37;;;0.80;;
14984;SDS011;7588;62.368;25.902;2022-09-03T08:17:58;1.23;;;1.20;;
14984;SDS011;7588;62.368;25.902;2022-09-03T08:20:25;1.20;;;1.10;;
14984;SDS011;7588;62.368;25.902;2022-09-03T08:22:51;0.80;;;0.80;;
14984;SDS011;7588;62.368;25.902;2022-09-03T08:25:18;0.80;;;0.80;;
14984;SDS011;7588;62.368;25.902;2022-09-03T08:27:43;0.90;;;0.90;;
14984;SDS011;7588;62.368;25.902;2022-09-03T08:30:09;1.50;;;1.00;;
14984;SDS011;7588;62.368;25.902;2022-09-03T08:32:36;0.80;;;0.80;;
14984;SDS011;7588;62.368;25.902;2022-09-03T08:35:04;2.33;;;0.90;;
14984;SDS011;7588;62.368;25.902;2022-09-03T08:37:33;0.97;;;0.97;;
14984;SDS011;7588;62.368;25.902;2022-09-03T08:39:59;0.90;;;0.90;;
14984;SDS011;7588;62.368;25.902;2022-09-03T08:42:30;1.00;;;1.00;;
14984;SDS011;7588;62.368;25.902;2022-09-03T08:45:24;1.00;;;0.73;;
14984;SDS011;7588;62.368;25.902;2022-09-03T08:47:57;0.90;;;0.90;;
14984;SDS011;7588;62.368;25.902;2022-09-03T08:50:44;2.57;;;0.80;;
14984;SDS011;7588;62.368;25.902;2022-09-03T08:53:20;3.50;;;1.40;;
14984;SDS011;7588;62.368;25.902;2022-09-03T08:56:07;1.00;;;0.90;;
14984;SDS011;7588;62.368;25.902;2022-09-03T08:58:36;0.70;;;0.70;;
14984;SDS011;7588;62.368;25.902;2022-09-03T09:01:09;0.83;;;0.83;;
14984;SDS011;7588;62.368;25.902;2022-09-03T09:08:47;1.23;;;0.70;;
14984;SDS011;7588;62.368;25.902;2022-09-03T09:14:24;0.60;;;0.60;;
14984;SDS011;7588;62.368;25.902;2022-09-03T09:22:26;2.40;;;0.90;;
14984;SDS011;7588;62.368;25.902;2022-09-03T09:24:58;0.70;;;0.70;;
14984;SDS011;7588;62.368;25.902;2022-09-03T09:27:29;1.00;;;1.00;;
14984;SDS011;7588;62.368;25.902;2022-09-03T09:29:57;0.90;;;0.90;;
14984;SDS011;7588;62.368;25.902;2022-09-03T09:32:25;0.70;;;0.70;;
14984;SDS011;7588;62.368;25.902;2022-09-03T09:34:51;0.80;;;0.80;;
14984;SDS011;7588;62.368;25.902;2022-09-03T09:37:19;0.80;;;0.80;;
14984;SDS011;7588;62.368;25.902;2022-09-03T09:39:53;0.83;;;0.70;;
14984;SDS011;7588;62.368;25.902;2022-09-03T09:42:23;0.80;;;0.80;;
14984;SDS011;7588;62.368;25.902;2022-09-03T09:44:49;2.73;;;0.67;;
14984;SDS011;7588;62.368;25.902;2022-09-03T09:47:29;0.50;;;0.50;;
14984;SDS011;7588;62.368;25.902;2022-09-03T09:50:02;0.65;;;0.60;;
14984;SDS011;7588;62.368;25.902;2022-09-03T09:52:39;1.40;;;0.70;;
14984;SDS011;7588;62.368;25.902;2022-09-03T09:55:06;0.60;;;0.60;;
14984;SDS011;7588;62.368;25.902;2022-09-03T09:57:39;0.70;;;0.70;;
14984;SDS011;7588;62.368;25.902;2022-09-03T10:00:15;0.53;;;0.53;;
14984;SDS011;7588;62.368;25.902;2022-09-03T10:02:49;0.60;;;0.60;;
14984;SDS011;7588;62.368;25.902;2022-09-03T10:05:20;0.63;;;0.60;;
14984;SDS011;7588;62.368;25.902;2022-09-03T10:08:03;0.77;;;0.77;;
14984;SDS011;7588;62.368;25.902;2022-09-03T10:10:32;0.80;;;0.80;;
14984;SDS011;7588;62.368;25.902;2022-09-03T10:13:05;1.73;;;0.70;;
14984;SDS011;7588;62.368;25.902;2022-09-03T10:26:24;1.03;;;0.90;;
14984;SDS011;7588;62.368;25.902;2022-09-03T10:28:58;1.00;;;1.00;;
14984;SDS011;7588;62.368;25.902;2022-09-03T10:34:23;0.85;;;0.85;;
14984;SDS011;7588;62.368;25.902;2022-09-03T10:37:06;2.78;;;0.90;;
14984;SDS011;7588;62.368;25.902;2022-09-03T10:45:18;0.70;;;0.70;;
14984;SDS011;7588;62.368;25.902;2022-09-03T10:48:21;0.80;;;0.80;;
14984;SDS011;7588;62.368;25.902;2022-09-03T10:50:52;1.07;;;0.57;;
14984;SDS011;7588;62.368;25.902;2022-09-03T10:56:53;0.65;;;0.60;;
14984;SDS011;7588;62.368;25.902;2022-09-03T11:04:43;0.40;;;0.40;;
14984;SDS011;7588;62.368;25.902;2022-09-03T11:07:19;0.60;;;0.60;;
14984;SDS011;7588;62.368;25.902;2022-09-03T11:09:57;0.35;;;0.35;;
14984;SDS011;7588;62.368;25.902;2022-09-03T11:12:43;1.15;;;0.50;;
14984;SDS011;7588;62.368;25.902;2022-09-03T11:18:01;1.33;;;0.60;;
14984;SDS011;7588;62.368;25.902;2022-09-03T11:20:34;0.67;;;0.50;;
14984;SDS011;7588;62.368;25.902;2022-09-03T11:23:02;0.50;;;0.50;;
14984;SDS011;7588;62.368;25.902;2022-09-03T11:25:36;0.75;;;0.75;;
14984;SDS011;7588;62.368;25.902;2022-09-03T11:34:13;0.40;;;0.40;;
14984;SDS011;7588;62.368;25.902;2022-09-03T11:36:34;0.88;;;0.60;;
14984;SDS011;7588;62.368;25.902;2022-09-03T11:40:03;0.82;;;0.60;;
14984;SDS011;7588;62.368;25.902;2022-09-03T11:42:01;1.00;;;1.00;;
14984;SDS011;7588;62.368;25.902;2022-09-03T11:44:40;1.10;;;0.80;;
14984;SDS011;7588;62.368;25.902;2022-09-03T11:49:51;2.40;;;1.80;;
14984;SDS011;7588;62.368;25.902;2022-09-03T11:52:29;1.93;;;1.00;;
14984;SDS011;7588;62.368;25.902;2022-09-03T11:55:04;0.90;;;0.90;;
14984;SDS011;7588;62.368;25.902;2022-09-03T11:57:31;0.70;;;0.70;;
14984;SDS011;7588;62.368;25.902;2022-09-03T12:00:10;1.47;;;1.13;;
14984;SDS011;7588;62.368;25.902;2022-09-03T12:02:43;0.80;;;0.80;;
14984;SDS011;7588;62.368;25.902;2022-09-03T12:05:29;1.00;;;0.90;;
14984;SDS011;7588;62.368;25.902;2022-09-03T12:08:51;1.00;;;1.00;;
14984;SDS011;7588;62.368;25.902;2022-09-03T12:19:52;0.70;;;0.70;;
14984;SDS011;7588;62.368;25.902;2022-09-03T12:22:21;2.10;;;1.50;;
14984;SDS011;7588;62.368;25.902;2022-09-03T12:24:49;1.30;;;1.20;;
14984;SDS011;7588;62.368;25.902;2022-09-03T12:27:25;0.70;;;0.70;;
14984;SDS011;7588;62.368;25.902;2022-09-03T12:29:57;1.13;;;0.60;;
14984;SDS011;7588;62.368;25.902;2022-09-03T12:32:31;2.55;;;1.20;;
14984;SDS011;7588;62.368;25.902;2022-09-03T12:37:41;0.97;;;0.90;;
14984;SDS011;7588;62.368;25.902;2022-09-03T12:42:45;1.80;;;0.90;;
14984;SDS011;7588;62.368;25.902;2022-09-03T12:45:11;0.60;;;0.60;;
14984;SDS011;7588;62.368;25.902;2022-09-03T12:47:40;0.88;;;0.80;;
14984;SDS011;7588;62.368;25.902;2022-09-03T12:50:12;0.70;;;0.70;;
14984;SDS011;7588;62.368;25.902;2022-09-03T12:52:54;4.30;;;1.30;;
14984;SDS011;7588;62.368;25.902;2022-09-03T13:00:37;1.13;;;1.02;;
14984;SDS011;7588;62.368;25.902;2022-09-03T13:03:18;0.95;;;0.95;;
14984;SDS011;7588;62.368;25.902;2022-09-03T13:05:53;0.80;;;0.80;;
14984;SDS011;7588;62.368;25.902;2022-09-03T13:08:32;1.10;;;1.00;;
14984;SDS011;7588;62.368;25.902;2022-09-03T13:11:34;1.73;;;0.93;;
14984;SDS011;7588;62.368;25.902;2022-09-03T13:22:05;1.33;;;0.87;;
14984;SDS011;7588;62.368;25.902;2022-09-03T13:32:34;3.73;;;1.10;;
14984;SDS011;7588;62.368;25.902;2022-09-03T13:35:05;2.00;;;1.00;;
14984;SDS011;7588;62.368;25.902;2022-09-03T13:37:42;2.03;;;1.37;;
14984;SDS011;7588;62.368;25.902;2022-09-03T13:43:00;1.20;;;1.10;;
14984;SDS011;7588;62.368;25.902;2022-09-03T13:45:56;2.77;;;1.00;;
14984;SDS011;7588;62.368;25.902;2022-09-03T13:51:17;2.07;;;1.83;;
14984;SDS011;7588;62.368;25.902;2022-09-03T13:53:58;3.30;;;1.20;;
14984;SDS011;7588;62.368;25.902;2022-09-03T13:59:32;1.20;;;1.20;;
14984;SDS011;7588;62.368;25.902;2022-09-03T14:02:26;1.60;;;1.50;;
14984;SDS011;7588;62.368;25.902;2022-09-03T14:13:36;1.73;;;1.20;;
14984;SDS011;7588;62.368;25.902;2022-09-03T14:21:46;1.07;;;1.00;;
14984;SDS011;7588;62.368;25.902;2022-09-03T14:24:41;1.20;;;1.10;;
14984;SDS011;7588;62.368;25.902;2022-09-03T14:27:28;1.20;;;1.10;;
14984;SDS011;7588;62.368;25.902;2022-09-03T14:30:00;1.50;;;1.40;;
14984;SDS011;7588;62.368;25.902;2022-09-03T14:35:30;1.00;;;1.00;;
14984;SDS011;7588;62.368;25.902;2022-09-03T14:38:06;1.13;;;1.03;;
14984;SDS011;7588;62.368;25.902;2022-09-03T14:41:09;1.20;;;1.10;;
14984;SDS011;7588;62.368;25.902;2022-09-03T14:44:02;1.10;;;0.90;;
14984;SDS011;7588;62.368;25.902;2022-09-03T14:46:55;2.70;;;1.20;;
14984;SDS011;7588;62.368;25.902;2022-09-03T14:57:56;1.20;;;1.10;;
14984;SDS011;7588;62.368;25.902;2022-09-03T15:03:33;1.50;;;1.40;;
14984;SDS011;7588;62.368;25.902;2022-09-03T15:17:42;2.13;;;1.30;;
14984;SDS011;7588;62.368;25.902;2022-09-03T15:26:04;1.40;;;1.30;;
14984;SDS011;7588;62.368;25.902;2022-09-03T15:37:43;3.00;;;1.63;;
14984;SDS011;7588;62.368;25.902;2022-09-03T15:42:44;4.63;;;2.10;;
14984;SDS011;7588;62.368;25.902;2022-09-03T15:45:18;1.80;;;1.40;;
14984;SDS011;7588;62.368;25.902;2022-09-03T15:47:55;2.17;;;1.50;;
14984;SDS011;7588;62.368;25.902;2022-09-03T15:55:42;1.50;;;1.40;;
14984;SDS011;7588;62.368;25.902;2022-09-03T16:00:54;1.37;;;1.20;;
14984;SDS011;7588;62.368;25.902;2022-09-03T16:03:32;1.50;;;1.40;;
14984;SDS011;7588;62.368;25.902;2022-09-03T16:06:17;1.63;;;1.47;;
14984;SDS011;7588;62.368;25.902;2022-09-03T16:09:24;1.93;;;1.83;;
14984;SDS011;7588;62.368;25.902;2022-09-03T16:12:16;2.13;;;1.60;;
14984;SDS011;7588;62.368;25.902;2022-09-03T16:14:55;1.53;;;1.43;;
14984;SDS011;7588;62.368;25.902;2022-09-03T16:17:37;1.80;;;1.70;;
14984;SDS011;7588;62.368;25.902;2022-09-03T16:22:56;1.73;;;1.40;;
14984;SDS011;7588;62.368;25.902;2022-09-03T16:28:29;7.67;;;1.90;;
14984;SDS011;7588;62.368;25.902;2022-09-03T16:34:18;1.60;;;1.50;;
14984;SDS011;7588;62.368;25.902;2022-09-03T16:37:01;1.40;;;1.30;;
14984;SDS011;7588;62.368;25.902;2022-09-03T16:53:42;2.10;;;1.33;;
14984;SDS011;7588;62.368;25.902;2022-09-03T16:59:39;2.03;;;1.53;;
14984;SDS011;7588;62.368;25.902;2022-09-03T17:02:29;1.70;;;1.60;;
14984;SDS011;7588;62.368;25.902;2022-09-03T17:24:52;1.40;;;1.30;;
14984;SDS011;7588;62.368;25.902;2022-09-03T17:27:41;1.57;;;1.47;;
14984;SDS011;7588;62.368;25.902;2022-09-03T17:35:45;1.47;;;1.33;;
14984;SDS011;7588;62.368;25.902;2022-09-03T17:49:51;1.20;;;1.10;;
14984;SDS011;7588;62.368;25.902;2022-09-03T17:58:16;1.83;;;1.60;;
14984;SDS011;7588;62.368;25.902;2022-09-03T18:00:59;1.50;;;1.40;;
14984;SDS011;7588;62.368;25.902;2022-09-03T18:03:38;1.47;;;1.37;;
14984;SDS011;7588;62.368;25.902;2022-09-03T18:09:32;2.27;;;1.50;;
14984;SDS011;7588;62.368;25.902;2022-09-03T18:12:12;1.83;;;1.40;;
14984;SDS011;7588;62.368;25.902;2022-09-03T18:14:48;1.60;;;1.50;;
14984;SDS011;7588;62.368;25.902;2022-09-03T18:17:21;1.30;;;1.20;;
14984;SDS011;7588;62.368;25.902;2022-09-03T18:19:54;1.37;;;1.27;;
14984;SDS011;7588;62.368;25.902;2022-09-03T18:22:58;1.27;;;1.17;;
14984;SDS011;7588;62.368;25.902;2022-09-03T18:25:44;1.70;;;1.60;;
14984;SDS011;7588;62.368;25.902;2022-09-03T18:28:41;2.03;;;1.40;;
14984;SDS011;7588;62.368;25.902;2022-09-03T18:31:31;1.10;;;1.10;;
14984;SDS011;7588;62.368;25.902;2022-09-03T18:34:15;2.07;;;1.40;;
14984;SDS011;7588;62.368;25.902;2022-09-03T18:37:02;1.43;;;1.33;;
14984;SDS011;7588;62.368;25.902;2022-09-03T18:39:47;5.30;;;2.00;;
14984;SDS011;7588;62.368;25.902;2022-09-03T18:45:44;1.27;;;1.20;;
14984;SDS011;7588;62.368;25.902;2022-09-03T18:48:35;2.20;;;1.17;;
14984;SDS011;7588;62.368;25.902;2022-09-03T18:51:25;2.13;;;1.57;;
14984;SDS011;7588;62.368;25.902;2022-09-03T18:54:21;2.77;;;1.70;;
14984;SDS011;7588;62.368;25.902;2022-09-03T18:57:29;1.90;;;1.40;;
14984;SDS011;7588;62.368;25.902;2022-09-03T19:00:23;2.70;;;1.70;;
14984;SDS011;7588;62.368;25.902;2022-09-03T19:06:18;1.80;;;1.70;;
14984;SDS011;7588;62.368;25.902;2022-09-03T19:15:07;2.73;;;1.30;;
14984;SDS011;7588;62.368;25.902;2022-09-03T19:21:11;1.50;;;1.40;;
14984;SDS011;7588;62.368;25.902;2022-09-03T19:24:12;1.40;;;1.30;;
14984;SDS011;7588;62.368;25.902;2022-09-03T19:27:05;1.93;;;1.20;;
14984;SDS011;7588;62.368;25.902;2022-09-03T19:32:58;2.37;;;1.47;;
14984;SDS011;7588;62.368;25.902;2022-09-03T19:39:11;1.30;;;1.20;;
14984;SDS011;7588;62.368;25.902;2022-09-03T19:45:15;1.30;;;1.30;;
14984;SDS011;7588;62.368;25.902;2022-09-03T19:48:31;1.20;;;1.10;;
14984;SDS011;7588;62.368;25.902;2022-09-03T19:51:39;2.70;;;1.50;;
14984;SDS011;7588;62.368;25.902;2022-09-03T19:54:29;1.30;;;1.20;;
14984;SDS011;7588;62.368;25.902;2022-09-03T19:57:14;1.33;;;1.23;;
14984;SDS011;7588;62.368;25.902;2022-09-03T20:00:02;1.57;;;1.00;;
14984;SDS011;7588;62.368;25.902;2022-09-03T20:02:47;3.43;;;1.30;;
14984;SDS011;7588;62.368;25.902;2022-09-03T20:05:32;1.03;;;1.03;;
14984;SDS011;7588;62.368;25.902;2022-09-03T20:08:19;1.20;;;1.10;;
14984;SDS011;7588;62.368;25.902;2022-09-03T20:11:07;1.03;;;1.00;;
14984;SDS011;7588;62.368;25.902;2022-09-03T20:13:44;1.20;;;1.20;;
14984;SDS011;7588;62.368;25.902;2022-09-03T20:16:30;2.30;;;1.30;;
14984;SDS011;7588;62.368;25.902;2022-09-03T20:19:29;2.07;;;1.30;;
14984;SDS011;7588;62.368;25.902;2022-09-03T20:22:22;1.50;;;1.00;;
14984;SDS011;7588;62.368;25.902;2022-09-03T20:30:14;6.23;;;1.80;;
14984;SDS011;7588;62.368;25.902;2022-09-03T20:35:58;1.33;;;1.23;;
14984;SDS011;7588;62.368;25.902;2022-09-03T20:41:54;2.53;;;1.13;;
14984;SDS011;7588;62.368;25.902;2022-09-03T20:52:34;2.03;;;1.00;;
14984;SDS011;7588;62.368;25.902;2022-09-03T21:01:04;2.40;;;1.00;;
14984;SDS011;7588;62.368;25.902;2022-09-03T21:03:44;0.90;;;0.90;;
14984;SDS011;7588;62.368;25.902;2022-09-03T21:09:06;1.73;;;1.10;;
14984;SDS011;7588;62.368;25.902;2022-09-03T21:12:01;1.53;;;1.03;;
14984;SDS011;7588;62.368;25.902;2022-09-03T21:24:01;1.43;;;1.00;;
14984;SDS011;7588;62.368;25.902;2022-09-03T21:26:33;1.20;;;1.10;;
14984;SDS011;7588;62.368;25.902;2022-09-03T21:32:17;1.40;;;1.17;;
14984;SDS011;7588;62.368;25.902;2022-09-03T21:37:12;1.73;;;1.30;;